Time;durP1;ratioP1;P1;durP2;ratioP2;P2;SDS_P1;SDS_P2;PMS_P1;PMS_P2;Temp;Humidity;BMP_temperature;BMP_pressure;BME280_temperature;BME280_humidity;BME280_pressure;Samples;Min_cycle;Max_cycle;Signal;HPM_P1;HPM_P2
2024/04/26 00:02:26;;;;;;;;;;;;;;;;;;6737397;26;19972;-62
2024/04/26 00:05:32;;;;;;;;;;;;;;;;;;6737037;26;19982;-61
2024/04/26 00:08:37;;;;;;;;;;;;;;;;;;6736301;26;20005;-62
2024/04/26 00:11:45;;;;;;;;;;;;;;;;;;6737726;26;19948;-61
2024/04/26 00:14:50;;;;;;;;;;;;;;;;;;6735568;26;19932;-60
2024/04/26 00:17:56;;;;;;;;;;;;;;;;;;6734638;26;19925;-62
2024/04/26 00:21:01;;;;;;;;;;;;;;;;;;6735961;26;20346;-61
2024/04/26 00:24:07;;;;;;;;;;;;;;;;;;6736871;26;20004;-60
2024/04/26 00:27:15;;;;;;;;;;;;;;;;;;6737033;26;19924;-60
2024/04/26 00:30:20;;;;;;;;;;;;;;;;;;6735439;26;20126;-61
2024/04/26 00:33:25;;;;;;;;;;;;;;;;;;6735309;26;20027;-61
2024/04/26 00:36:31;;;;;;;;;;;;;;;;;;6737016;26;19932;-60
2024/04/26 00:39:36;;;;;;;;;;;;;;;;;;6735775;26;19925;-62
2024/04/26 00:42:44;;;;;;;;;;;;;;;;;;6735380;26;20134;-61
2024/04/26 00:45:49;;;;;;;;;;;;;;;;;;6736648;26;19925;-60
2024/04/26 00:48:54;;;;;;;;;;;;;;;;;;6736244;26;19962;-61
2024/04/26 00:52:00;;;;;;;;;;;;;;;;;;6705972;26;20037;-61
2024/04/26 00:55:05;;;;;;;;;;;;;;;;;;6736547;26;19972;-62
2024/04/26 00:58:13;;;;;;;;;;;;;;;;;;6705132;26;20074;-61
2024/04/26 01:01:19;;;;;;;;;;;;;;;;;;6738203;26;20126;-61
2024/04/26 01:04:24;;;;;;;;;;;;;;;;;;6735973;26;19932;-62
2024/04/26 01:07:29;;;;;;;;;;;;;;;;;;6735980;26;20144;-60
2024/04/26 01:10:35;;;;;;;;;;;;;;;;;;6736460;26;19925;-61
2024/04/26 01:13:43;;;;;;;;;;;;;;;;;;6736007;26;19925;-61
2024/04/26 01:16:48;;;;;;;;;;;;;;;;;;6736321;26;20013;-61
2024/04/26 01:19:53;;;;;;;;;;;;;;;;;;6735082;26;19997;-61
2024/04/26 01:22:59;;;;;;;;;;;;;;;;;;6735383;26;19932;-61
2024/04/26 01:26:06;;;;;;;;;;;;;;;;;;6736038;26;20017;-62
2024/04/26 01:29:14;;;;;;;;;;;;;;;;;;6734848;26;19925;-61
2024/04/26 01:32:19;;;;;;;;;;;;;;;;;;6735927;26;20118;-60
2024/04/26 01:35:24;;;;;;;;;;;;;;;;;;6734031;26;19925;-61
2024/04/26 01:38:30;;;;;;;;;;;;;;;;;;6735102;26;19925;-62
2024/04/26 01:41:38;;;;;;;;;;;;;;;;;;6704978;26;19932;-61
2024/04/26 01:44:43;;;;;;;;;;;;;;;;;;6733527;26;20044;-61
2024/04/26 01:47:48;;;;;;;;;;;;;;;;;;6734808;26;20354;-60
2024/04/26 01:50:54;;;;;;;;;;;;;;;;;;6735458;26;19925;-60
2024/04/26 01:53:59;;;;;;;;;;;;;;;;;;6735058;26;20006;-60
2024/04/26 01:57:05;;;;;;;;;;;;;;;;;;6735176;26;20351;-63
2024/04/26 02:00:11;;;;;;;;;;;;;;;;;;6733208;26;19933;-61
2024/04/26 02:03:16;;;;;;;;;;;;;;;;;;6734982;26;19925;-61
2024/04/26 02:06:21;;;;;;;;;;;;;;;;;;6735239;26;20229;-61
2024/04/26 02:09:24;;;;;;;;;;;;;;;;;;6708899;26;19933;-62
2024/04/26 02:12:32;;;;;;;;;;;;;;;;;;6719583;26;20033;-61
2024/04/26 02:15:34;;;;;;;;;;;;;;;;;;6737643;26;19925;-61
2024/04/26 02:18:39;;;;;;;;;;;;;;;;;;6733296;26;20118;-61
2024/04/26 02:21:45;;;;;;;;;;;;;;;;;;6733989;26;19932;-63
2024/04/26 02:24:50;;;;;;;;;;;;;;;;;;6732970;26;19962;-60
2024/04/26 02:27:58;;;;;;;;;;;;;;;;;;6734388;26;19945;-62
2024/04/26 02:31:03;;;;;;;;;;;;;;;;;;6734606;26;19925;-61
2024/04/26 02:34:09;;;;;;;;;;;;;;;;;;6692268;26;19929;-61
2024/04/26 02:37:14;;;;;;;;;;;;;;;;;;6734446;26;20137;-61
2024/04/26 02:40:20;;;;;;;;;;;;;;;;;;6735457;26;20241;-62
2024/04/26 02:43:28;;;;;;;;;;;;;;;;;;6738081;26;19932;-60
2024/04/26 02:46:34;;;;;;;;;;;;;;;;;;6738830;26;19932;-60
2024/04/26 02:49:39;;;;;;;;;;;;;;;;;;6738637;26;19932;-60
2024/04/26 02:52:45;;;;;;;;;;;;;;;;;;6738110;26;19967;-62
2024/04/26 02:55:50;;;;;;;;;;;;;;;;;;6738099;26;19949;-61
2024/04/26 02:58:58;;;;;;;;;;;;;;;;;;6738124;26;19925;-61
2024/04/26 03:02:03;;;;;;;;;;;;;;;;;;6737235;26;19932;-61
2024/04/26 03:05:08;;;;;;;;;;;;;;;;;;6736616;26;19951;-61
2024/04/26 03:08:13;;;;;;;;;;;;;;;;;;6737159;26;20012;-60
2024/04/26 03:11:21;;;;;;;;;;;;;;;;;;6738568;26;19925;-60
2024/04/26 03:14:29;;;;;;;;;;;;;;;;;;6737442;26;19925;-60
2024/04/26 03:17:34;;;;;;;;;;;;;;;;;;6738364;26;19925;-61
2024/04/26 03:20:39;;;;;;;;;;;;;;;;;;6737773;26;19932;-61
2024/04/26 03:23:45;;;;;;;;;;;;;;;;;;6737779;26;19932;-61
2024/04/26 03:26:50;;;;;;;;;;;;;;;;;;6738244;26;19932;-61
2024/04/26 03:29:58;;;;;;;;;;;;;;;;;;6737622;26;20253;-60
2024/04/26 03:33:05;;;;;;;;;;;;;;;;;;6741037;26;19935;-61
2024/04/26 03:36:11;;;;;;;;;;;;;;;;;;6737860;26;19929;-60
2024/04/26 03:39:19;;;;;;;;;;;;;;;;;;6737628;26;19932;-60
2024/04/26 03:42:24;;;;;;;;;;;;;;;;;;6736821;26;19925;-60
2024/04/26 03:45:32;;;;;;;;;;;;;;;;;;6737235;26;19932;-60
2024/04/26 03:48:37;;;;;;;;;;;;;;;;;;6738210;26;19925;-60
2024/04/26 03:51:43;;;;;;;;;;;;;;;;;;6737389;26;19932;-61
2024/04/26 03:54:48;;;;;;;;;;;;;;;;;;6735971;26;19925;-62
2024/04/26 03:57:53;;;;;;;;;;;;;;;;;;6736810;26;20110;-61
2024/04/26 04:01:01;;;;;;;;;;;;;;;;;;6737012;26;19932;-61
2024/04/26 04:04:07;;;;;;;;;;;;;;;;;;6737009;26;20118;-61
2024/04/26 04:07:12;;;;;;;;;;;;;;;;;;6738079;26;19924;-60
2024/04/26 04:10:17;;;;;;;;;;;;;;;;;;6736688;26;20692;-60
2024/04/26 04:13:23;;;;;;;;;;;;;;;;;;6736511;26;20243;-61
2024/04/26 04:16:31;;;;;;;;;;;;;;;;;;6737646;26;19972;-61
2024/04/26 04:19:36;;;;;;;;;;;;;;;;;;6736642;26;20177;-61
2024/04/26 04:22:42;;;;;;;;;;;;;;;;;;6737624;26;19952;-63
2024/04/26 04:25:49;;;;;;;;;;;;;;;;;;6735410;26;19932;-61
2024/04/26 04:28:54;;;;;;;;;;;;;;;;;;6736363;26;20245;-61
2024/04/26 04:32:02;;;;;;;;;;;;;;;;;;6737240;26;19932;-61
2024/04/26 04:35:07;;;;;;;;;;;;;;;;;;6736959;26;20219;-61
2024/04/26 04:38:13;;;;;;;;;;;;;;;;;;6737162;26;19932;-61
2024/04/26 04:41:18;;;;;;;;;;;;;;;;;;6737047;26;19928;-60
2024/04/26 04:44:23;;;;;;;;;;;;;;;;;;6736863;26;19932;-61
2024/04/26 04:47:31;;;;;;;;;;;;;;;;;;6739381;26;19925;-61
2024/04/26 04:50:37;;;;;;;;;;;;;;;;;;6737131;26;19932;-61
2024/04/26 04:53:42;;;;;;;;;;;;;;;;;;6735866;26;19929;-61
2024/04/26 04:56:47;;;;;;;;;;;;;;;;;;6736403;26;19925;-60
2024/04/26 04:59:52;;;;;;;;;;;;;;;;;;6735829;26;20804;-61
2024/04/26 05:03:00;;;;;;;;;;;;;;;;;;6735251;26;19932;-60
2024/04/26 05:06:06;;;;;;;;;;;;;;;;;;6737075;26;19925;-61
2024/04/26 05:09:12;;;;;;;;;;;;;;;;;;6736642;26;19924;-61
2024/04/26 05:12:17;;;;;;;;;;;;;;;;;;6737032;26;19932;-61
2024/04/26 05:15:22;;;;;;;;;;;;;;;;;;6736229;26;20007;-62
2024/04/26 05:18:30;;;;;;;;;;;;;;;;;;6710567;26;19926;-60
2024/04/26 05:21:36;;;;;;;;;;;;;;;;;;6722623;26;19932;-61
2024/04/26 05:24:41;;;;;;;;;;;;;;;;;;6735852;26;19925;-61
2024/04/26 05:27:48;;;;;;;;;;;;;;;;;;6735451;26;20247;-61
2024/04/26 05:30:53;;;;;;;;;;;;;;;;;;6737154;26;19925;-61
2024/04/26 05:34:01;;;;;;;;;;;;;;;;;;6736177;26;20080;-61
2024/04/26 05:37:08;;;;;;;;;;;;;;;;;;6736701;26;20126;-60
2024/04/26 05:40:13;;;;;;;;;;;;;;;;;;6725132;26;19925;-61
2024/04/26 05:43:19;;;;;;;;;;;;;;;;;;6735120;26;20102;-61
2024/04/26 05:46:24;;;;;;;;;;;;;;;;;;6736181;26;19932;-62
2024/04/26 05:49:32;;;;;;;;;;;;;;;;;;6736048;26;20240;-61
2024/04/26 05:52:37;;;;;;;;;;;;;;;;;;6736440;26;20019;-61
2024/04/26 05:55:43;;;;;;;;;;;;;;;;;;6736542;26;20115;-62
2024/04/26 05:58:50;;;;;;;;;;;;;;;;;;6735171;26;20361;-62
2024/04/26 06:01:55;;;;;;;;;;;;;;;;;;6735704;26;20114;-61
2024/04/26 06:05:08;;;;;;;;;;;;;;;;;;6738219;26;20129;-61
2024/04/26 06:08:14;;;;;;;;;;;;;;;;;;6734804;26;19925;-61
2024/04/26 06:11:20;;;;;;;;;;;;;;;;;;6735320;26;19932;-61
2024/04/26 06:14:25;;;;;;;;;;;;;;;;;;6734859;26;20480;-61
2024/04/26 06:17:30;;;;;;;;;;;;;;;;;;6735800;26;20069;-61
2024/04/26 06:20:38;;;;;;;;;;;;;;;;;;6735392;26;20118;-61
2024/04/26 06:23:45;;;;;;;;;;;;;;;;;;6704661;26;19925;-61
2024/04/26 06:26:50;;;;;;;;;;;;;;;;;;6736150;26;19925;-61
2024/04/26 06:29:56;;;;;;;;;;;;;;;;;;6704359;26;19925;-61
2024/04/26 06:33:01;;;;;;;;;;;;;;;;;;6734815;26;20110;-62
2024/04/26 06:36:09;;;;;;;;;;;;;;;;;;6735727;26;19925;-62
2024/04/26 06:39:15;;;;;;;;;;;;;;;;;;6734659;26;19932;-61
2024/04/26 06:42:20;;;;;;;;;;;;;;;;;;6734890;26;19925;-61
2024/04/26 06:45:25;;;;;;;;;;;;;;;;;;6734630;26;19932;-61
2024/04/26 06:48:31;;;;;;;;;;;;;;;;;;6734503;26;20026;-61
2024/04/26 06:51:41;;;;;;;;;;;;;;;;;;6735194;26;19929;-61
2024/04/26 06:54:47;;;;;;;;;;;;;;;;;;6733622;26;20134;-61
2024/04/26 06:57:55;;;;;;;;;;;;;;;;;;6734400;26;19952;-61
2024/04/26 07:01:00;;;;;;;;;;;;;;;;;;6735163;26;19948;-61
2024/04/26 07:04:09;;;;;;;;;;;;;;;;;;6734799;26;20008;-61
2024/04/26 07:07:18;;;;;;;;;;;;;;;;;;6734781;26;20015;-61
2024/04/26 07:10:23;;;;;;;;;;;;;;;;;;6734101;26;19925;-60
2024/04/26 07:13:29;;;;;;;;;;;;;;;;;;6733705;26;19925;-61
2024/04/26 07:16:34;;;;;;;;;;;;;;;;;;6734503;26;19929;-63
2024/04/26 07:19:40;;;;;;;;;;;;;;;;;;6736812;26;20453;-61
2024/04/26 07:22:49;;;;;;;;;;;;;;;;;;6733936;26;19932;-60
2024/04/26 07:26:07;;;;;;;;;;;;;;;;;;6704839;26;19925;-63
2024/04/26 07:29:12;;;;;;;;;;;;;;;;;;6738490;26;19929;-61
2024/04/26 07:32:31;;;;;;;;;;;;;;;;;;6738844;26;19932;-61
2024/04/26 07:35:37;;;;;;;;;;;;;;;;;;6738083;26;19932;-62
2024/04/26 07:38:45;;;;;;;;;;;;;;;;;;6737931;26;20129;-61
2024/04/26 07:41:50;;;;;;;;;;;;;;;;;;6738078;26;19932;-61
2024/04/26 07:44:55;;;;;;;;;;;;;;;;;;6737956;26;19925;-61
2024/04/26 07:48:01;;;;;;;;;;;;;;;;;;6737757;26;20233;-61
2024/04/26 07:51:07;;;;;;;;;;;;;;;;;;6738033;26;20176;-62
2024/04/26 07:54:14;;;;;;;;;;;;;;;;;;6738094;26;19936;-62
2024/04/26 07:57:20;;;;;;;;;;;;;;;;;;6738440;26;19928;-62
2024/04/26 08:00:25;;;;;;;;;;;;;;;;;;6737737;26;19932;-63
2024/04/26 08:03:31;;;;;;;;;;;;;;;;;;6739666;26;19955;-62
2024/04/26 08:06:36;;;;;;;;;;;;;;;;;;6739836;26;19925;-63
2024/04/26 08:09:44;;;;;;;;;;;;;;;;;;6738508;26;19925;-63
2024/04/26 08:12:49;;;;;;;;;;;;;;;;;;6737171;26;20004;-63
2024/04/26 08:15:55;;;;;;;;;;;;;;;;;;6737521;26;19932;-61
2024/04/26 08:19:00;;;;;;;;;;;;;;;;;;6737469;26;19928;-61
2024/04/26 08:22:05;;;;;;;;;;;;;;;;;;6738100;26;19941;-61
2024/04/26 08:25:13;;;;;;;;;;;;;;;;;;6737544;26;19932;-61
2024/04/26 08:28:30;;;;;;;;;;;;;;;;;;6736874;26;19925;-61
2024/04/26 08:31:36;;;;;;;;;;;;;;;;;;6737483;26;20131;-61
2024/04/26 08:34:42;;;;;;;;;;;;;;;;;;6738036;26;19925;-62
2024/04/26 08:37:48;;;;;;;;;;;;;;;;;;6736147;26;19932;-61
2024/04/26 08:40:56;;;;;;;;;;;;;;;;;;6737462;26;20053;-62
2024/04/26 08:44:02;;;;;;;;;;;;;;;;;;6649925;26;20123;-62
2024/04/26 08:47:07;;;;;;;;;;;;;;;;;;6650397;26;20119;-62
2024/04/26 08:50:13;;;;;;;;;;;;;;;;;;6649555;26;20126;-62
2024/04/26 08:53:18;;;;;;;;;;;;;;;;;;6649319;26;20478;-60
2024/04/26 08:56:26;;;;;;;;;;;;;;;;;;6649798;26;19926;-61
2024/04/26 08:59:34;;;;;;;;;;;;;;;;;;6648846;26;19926;-61
2024/04/26 09:02:39;;;;;;;;;;;;;;;;;;6649638;26;19930;-64
2024/04/26 09:05:45;;;;;;;;;;;;;;;;;;6649005;26;19930;-61
2024/04/26 09:08:50;;;;;;;;;;;;;;;;;;6648990;26;19933;-61
2024/04/26 09:12:02;;;;;;;;;;;;;;;;;;6649326;26;20153;-60
2024/04/26 09:15:08;;;;;;;;;;;;;;;;;;6648004;26;19930;-62
2024/04/26 09:18:13;;;;;;;;;;;;;;;;;;6649345;26;19925;-62
2024/04/26 09:21:19;;;;;;;;;;;;;;;;;;6649731;26;19926;-62
2024/04/26 09:24:25;;;;;;;;;;;;;;;;;;6648796;26;19933;-62
2024/04/26 09:27:33;;;;;;;;;;;;;;;;;;6648969;26;20570;-61
2024/04/26 09:30:46;;;;;;;;;;;;;;;;;;6648328;26;19926;-61
2024/04/26 09:33:51;;;;;;;;;;;;;;;;;;6647509;26;19933;-63
2024/04/26 09:36:57;;;;;;;;;;;;;;;;;;6638144;26;19930;-62
2024/04/26 09:40:02;;;;;;;;;;;;;;;;;;6648072;26;20229;-61
2024/04/26 09:43:10;;;;;;;;;;;;;;;;;;6709730;26;19929;-61
2024/04/26 09:46:17;;;;;;;;;;;;;;;;;;6735993;26;19932;-62
2024/04/26 09:49:22;;;;;;;;;;;;;;;;;;6735128;26;20092;-61
2024/04/26 09:52:27;;;;;;;;;;;;;;;;;;6738777;26;20124;-61
2024/04/26 09:55:33;;;;;;;;;;;;;;;;;;6735334;26;20065;-61
2024/04/26 09:58:41;;;;;;;;;;;;;;;;;;6735185;26;19925;-61
2024/04/26 10:01:46;;;;;;;;;;;;;;;;;;6735887;26;19925;-60
2024/04/26 10:04:53;;;;;;;;;;;;;;;;;;6735453;26;20119;-61
2024/04/26 10:08:00;;;;;;;;;;;;;;;;;;6735267;26;19925;-63
2024/04/26 10:11:08;;;;;;;;;;;;;;;;;;6736563;26;19929;-61
2024/04/26 10:14:29;;;;;;;;;;;;;;;;;;6734648;26;19925;-61
2024/04/26 10:17:34;;;;;;;;;;;;;;;;;;6734661;26;19955;-61
2024/04/26 10:20:43;;;;;;;;;;;;;;;;;;6734861;26;19925;-61
2024/04/26 10:23:56;;;;;;;;;;;;;;;;;;6735001;26;19925;-61
2024/04/26 10:27:03;;;;;;;;;;;;;;;;;;6696468;26;20843;-62
2024/04/26 10:30:12;;;;;;;;;;;;;;;;;;6685555;26;19925;-62
2024/04/26 10:33:17;;;;;;;;;;;;;;;;;;6734120;26;19925;-62
2024/04/26 10:36:23;;;;;;;;;;;;;;;;;;6734687;26;19937;-62
2024/04/26 10:39:30;;;;;;;;;;;;;;;;;;6734407;26;19929;-62
2024/04/26 10:42:39;;;;;;;;;;;;;;;;;;6734028;26;20134;-61
2024/04/26 10:45:47;;;;;;;;;;;;;;;;;;6734049;26;19929;-60
2024/04/26 10:48:52;;;;;;;;;;;;;;;;;;6731852;26;19925;-61
2024/04/26 10:52:00;;;;;;;;;;;;;;;;;;6734315;26;19925;-61
2024/04/26 10:55:06;;;;;;;;;;;;;;;;;;6733920;26;19941;-61
2024/04/26 10:58:11;;;;;;;;;;;;;;;;;;6733815;26;19928;-61
2024/04/26 11:01:21;;;;;;;;;;;;;;;;;;6735514;26;19985;-61
2024/04/26 11:04:30;;;;;;;;;;;;;;;;;;6737770;26;19929;-61
2024/04/26 11:07:37;;;;;;;;;;;;;;;;;;6740921;26;19932;-61
2024/04/26 11:10:44;;;;;;;;;;;;;;;;;;6738153;26;19932;-62
2024/04/26 11:13:49;;;;;;;;;;;;;;;;;;6737510;26;19925;-61
2024/04/26 11:16:57;;;;;;;;;;;;;;;;;;6738469;26;19925;-61
2024/04/26 11:20:03;;;;;;;;;;;;;;;;;;6737315;26;19932;-62
2024/04/26 11:23:08;;;;;;;;;;;;;;;;;;6738467;26;19948;-62
2024/04/26 11:26:14;;;;;;;;;;;;;;;;;;6738523;26;19925;-63
2024/04/26 11:29:19;;;;;;;;;;;;;;;;;;6737287;26;19925;-61
2024/04/26 11:32:27;;;;;;;;;;;;;;;;;;6738459;26;19932;-60
2024/04/26 11:35:33;;;;;;;;;;;;;;;;;;6738090;26;19932;-61
2024/04/26 11:38:38;;;;;;;;;;;;;;;;;;6737465;26;19924;-61
2024/04/26 11:41:43;;;;;;;;;;;;;;;;;;6737685;26;20286;-62
2024/04/26 11:44:49;;;;;;;;;;;;;;;;;;6737318;26;19925;-62
2024/04/26 11:47:57;;;;;;;;;;;;;;;;;;6737524;26;19929;-61
2024/04/26 11:51:02;;;;;;;;;;;;;;;;;;6737861;26;20110;-62
2024/04/26 11:54:08;;;;;;;;;;;;;;;;;;6737106;26;20022;-61
2024/04/26 11:57:13;;;;;;;;;;;;;;;;;;6737618;26;19925;-62
2024/04/26 12:00:19;;;;;;;;;;;;;;;;;;6737337;26;19924;-62
2024/04/26 12:03:27;;;;;;;;;;;;;;;;;;6737475;26;20012;-62
2024/04/26 12:06:32;;;;;;;;;;;;;;;;;;6729190;26;19925;-62
2024/04/26 12:09:37;;;;;;;;;;;;;;;;;;6737424;26;19933;-62
2024/04/26 12:12:43;;;;;;;;;;;;;;;;;;6737995;26;19925;-61
2024/04/26 12:15:49;;;;;;;;;;;;;;;;;;6736813;26;19925;-63
2024/04/26 12:18:57;;;;;;;;;;;;;;;;;;6737866;26;20030;-61
2024/04/26 12:22:02;;;;;;;;;;;;;;;;;;6740934;26;19925;-61
2024/04/26 12:25:07;;;;;;;;;;;;;;;;;;6737109;26;20285;-61
2024/04/26 12:28:13;;;;;;;;;;;;;;;;;;6737305;26;20024;-62
2024/04/26 12:31:19;;;;;;;;;;;;;;;;;;6737529;26;19925;-61
2024/04/26 12:34:27;;;;;;;;;;;;;;;;;;6736716;26;19932;-61
2024/04/26 12:37:33;;;;;;;;;;;;;;;;;;6736717;26;19925;-61
2024/04/26 12:40:38;;;;;;;;;;;;;;;;;;6736771;26;19925;-61
2024/04/26 12:43:44;;;;;;;;;;;;;;;;;;6736143;26;20371;-61
2024/04/26 12:46:49;;;;;;;;;;;;;;;;;;6737353;26;19932;-62
2024/04/26 12:49:57;;;;;;;;;;;;;;;;;;6736569;26;19925;-61
2024/04/26 12:53:03;;;;;;;;;;;;;;;;;;6736832;26;19971;-60
2024/04/26 12:56:08;;;;;;;;;;;;;;;;;;6737268;26;20060;-62
2024/04/26 12:59:14;;;;;;;;;;;;;;;;;;6711146;26;20119;-62
2024/04/26 13:02:19;;;;;;;;;;;;;;;;;;6722338;26;19929;-62
2024/04/26 13:05:27;;;;;;;;;;;;;;;;;;6736605;26;19925;-62
2024/04/26 13:08:32;;;;;;;;;;;;;;;;;;6736135;26;20012;-61
2024/04/26 13:11:38;;;;;;;;;;;;;;;;;;6736483;26;20026;-61
2024/04/26 13:14:43;;;;;;;;;;;;;;;;;;6736269;26;20194;-61
2024/04/26 13:17:49;;;;;;;;;;;;;;;;;;6736105;26;19932;-61
2024/04/26 13:20:57;;;;;;;;;;;;;;;;;;6736738;26;19925;-62
2024/04/26 13:24:02;;;;;;;;;;;;;;;;;;6735156;26;19925;-62
2024/04/26 13:27:08;;;;;;;;;;;;;;;;;;6736606;26;19925;-61
2024/04/26 13:30:14;;;;;;;;;;;;;;;;;;6736313;26;19932;-61
2024/04/26 13:33:19;;;;;;;;;;;;;;;;;;6734069;26;19925;-61
2024/04/26 13:36:27;;;;;;;;;;;;;;;;;;6738656;26;19936;-61
2024/04/26 13:39:33;;;;;;;;;;;;;;;;;;6735316;26;19925;-60
2024/04/26 13:42:38;;;;;;;;;;;;;;;;;;6735203;26;20242;-62
2024/04/26 13:45:44;;;;;;;;;;;;;;;;;;6735030;26;20029;-61
2024/04/26 13:48:49;;;;;;;;;;;;;;;;;;6734461;26;20111;-62
2024/04/26 13:51:57;;;;;;;;;;;;;;;;;;6736070;26;19924;-61
2024/04/26 13:55:02;;;;;;;;;;;;;;;;;;6736029;26;19925;-60
2024/04/26 13:58:08;;;;;;;;;;;;;;;;;;6735391;26;19932;-62
2024/04/26 14:01:13;;;;;;;;;;;;;;;;;;6735808;26;19935;-61
2024/04/26 14:04:18;;;;;;;;;;;;;;;;;;6735521;26;19924;-61
2024/04/26 14:07:27;;;;;;;;;;;;;;;;;;6735060;26;19951;-61
2024/04/26 14:10:32;;;;;;;;;;;;;;;;;;6734608;26;19925;-61
2024/04/26 14:13:38;;;;;;;;;;;;;;;;;;6724218;26;20152;-61
2024/04/26 14:16:43;;;;;;;;;;;;;;;;;;6735306;26;20115;-62
2024/04/26 14:19:48;;;;;;;;;;;;;;;;;;6734524;26;19925;-62
2024/04/26 14:22:57;;;;;;;;;;;;;;;;;;6734508;26;19932;-61
2024/04/26 14:26:03;;;;;;;;;;;;;;;;;;6735088;26;20130;-61
2024/04/26 14:29:08;;;;;;;;;;;;;;;;;;6733932;26;19925;-64
2024/04/26 14:32:13;;;;;;;;;;;;;;;;;;6734733;26;19925;-62
2024/04/26 14:35:19;;;;;;;;;;;;;;;;;;6734207;26;20150;-62
2024/04/26 14:38:26;;;;;;;;;;;;;;;;;;6738618;26;19932;-61
2024/04/26 14:41:32;;;;;;;;;;;;;;;;;;6725550;26;19926;-63
2024/04/26 14:44:37;;;;;;;;;;;;;;;;;;6694842;26;20189;-61
2024/04/26 14:47:43;;;;;;;;;;;;;;;;;;6695620;26;19925;-61
2024/04/26 14:50:48;;;;;;;;;;;;;;;;;;6694847;26;19949;-61
2024/04/26 14:53:56;;;;;;;;;;;;;;;;;;6696638;26;19933;-62
2024/04/26 14:57:02;;;;;;;;;;;;;;;;;;6695588;26;19933;-61
2024/04/26 15:00:07;;;;;;;;;;;;;;;;;;6694099;26;19925;-61
2024/04/26 15:03:13;;;;;;;;;;;;;;;;;;6694112;26;20094;-61
2024/04/26 15:06:18;;;;;;;;;;;;;;;;;;6694855;26;20013;-62
2024/04/26 15:09:26;;;;;;;;;;;;;;;;;;6693859;26;20118;-60
2024/04/26 15:12:31;;;;;;;;;;;;;;;;;;6652046;26;19933;-61
2024/04/26 15:15:36;;;;;;;;;;;;;;;;;;6651293;26;20130;-61
2024/04/26 15:18:42;;;;;;;;;;;;;;;;;;6650855;26;19926;-61
2024/04/26 15:21:47;;;;;;;;;;;;;;;;;;6651339;26;20141;-61
2024/04/26 15:24:55;;;;;;;;;;;;;;;;;;6650847;26;20015;-61
2024/04/26 15:28:00;;;;;;;;;;;;;;;;;;6650879;26;20261;-61
2024/04/26 15:31:06;;;;;;;;;;;;;;;;;;6651408;26;19942;-61
2024/04/26 15:34:11;;;;;;;;;;;;;;;;;;6650031;26;20318;-61
2024/04/26 15:37:16;;;;;;;;;;;;;;;;;;6677109;26;20084;-60
2024/04/26 15:40:24;;;;;;;;;;;;;;;;;;6649581;26;19926;-61
2024/04/26 15:43:29;;;;;;;;;;;;;;;;;;6677178;26;19925;-61
2024/04/26 15:46:34;;;;;;;;;;;;;;;;;;6692890;26;20134;-61
2024/04/26 15:49:40;;;;;;;;;;;;;;;;;;6692270;26;19925;-61
2024/04/26 15:52:46;;;;;;;;;;;;;;;;;;6692397;26;20129;-62
2024/04/26 15:55:53;;;;;;;;;;;;;;;;;;6692690;26;19927;-62
2024/04/26 15:58:59;;;;;;;;;;;;;;;;;;6692520;26;20031;-61
2024/04/26 16:02:04;;;;;;;;;;;;;;;;;;6693489;26;19926;-62
2024/04/26 16:05:10;;;;;;;;;;;;;;;;;;6662063;26;19932;-61
2024/04/26 16:08:15;;;;;;;;;;;;;;;;;;6693698;26;19989;-61
2024/04/26 16:11:25;;;;;;;;;;;;;;;;;;6693259;26;19926;-62
2024/04/26 16:14:30;;;;;;;;;;;;;;;;;;6692967;26;19933;-62
2024/04/26 16:17:35;;;;;;;;;;;;;;;;;;6694190;26;19933;-61
2024/04/26 16:20:41;;;;;;;;;;;;;;;;;;6693249;26;20736;-61
2024/04/26 16:23:46;;;;;;;;;;;;;;;;;;6709576;26;19949;-61
2024/04/26 16:26:54;;;;;;;;;;;;;;;;;;6693493;26;19987;-60
2024/04/26 16:30:01;;;;;;;;;;;;;;;;;;6692877;26;19925;-61
2024/04/26 16:33:10;;;;;;;;;;;;;;;;;;6694276;26;19926;-60
2024/04/26 16:36:21;;;;;;;;;;;;;;;;;;6693423;26;19926;-62
2024/04/26 16:39:26;;;;;;;;;;;;;;;;;;6692797;26;19932;-62
2024/04/26 16:42:34;;;;;;;;;;;;;;;;;;6692807;26;19925;-62
2024/04/26 16:45:39;;;;;;;;;;;;;;;;;;6679064;26;19926;-62
2024/04/26 16:48:45;;;;;;;;;;;;;;;;;;6692208;26;19925;-61
2024/04/26 16:51:50;;;;;;;;;;;;;;;;;;6691328;26;19926;-63
2024/04/26 16:54:55;;;;;;;;;;;;;;;;;;6661289;26;19926;-62
2024/04/26 16:58:04;;;;;;;;;;;;;;;;;;6691392;26;20149;-61
2024/04/26 17:01:09;;;;;;;;;;;;;;;;;;6691918;26;20187;-62
2024/04/26 17:04:14;;;;;;;;;;;;;;;;;;6662050;26;19926;-61
2024/04/26 17:07:20;;;;;;;;;;;;;;;;;;6692779;26;19925;-62
2024/04/26 17:10:25;;;;;;;;;;;;;;;;;;6692039;26;19933;-62
2024/04/26 17:13:33;;;;;;;;;;;;;;;;;;6692770;26;19933;-61
2024/04/26 17:16:38;;;;;;;;;;;;;;;;;;6693689;26;19926;-62
2024/04/26 17:19:44;;;;;;;;;;;;;;;;;;6661170;26;19932;-61
2024/04/26 17:22:50;;;;;;;;;;;;;;;;;;6694176;26;19926;-62
2024/04/26 17:25:55;;;;;;;;;;;;;;;;;;6694336;26;20009;-63
2024/04/26 17:29:03;;;;;;;;;;;;;;;;;;6691440;26;20022;-62
2024/04/26 17:32:08;;;;;;;;;;;;;;;;;;6692826;26;19932;-62
2024/04/26 17:35:14;;;;;;;;;;;;;;;;;;6692107;26;19925;-61
2024/04/26 17:38:19;;;;;;;;;;;;;;;;;;6691993;26;19926;-63
2024/04/26 17:41:27;;;;;;;;;;;;;;;;;;6692021;26;19925;-61
2024/04/26 17:44:35;;;;;;;;;;;;;;;;;;6648788;26;19993;-62
2024/04/26 17:47:40;;;;;;;;;;;;;;;;;;6649408;26;19926;-63
2024/04/26 17:50:48;;;;;;;;;;;;;;;;;;6648049;26;20001;-61
2024/04/26 17:53:59;;;;;;;;;;;;;;;;;;6647962;26;19926;-61
2024/04/26 17:57:05;;;;;;;;;;;;;;;;;;6648981;26;19930;-61
2024/04/26 18:00:14;;;;;;;;;;;;;;;;;;6648520;26;19941;-60
2024/04/26 18:03:19;;;;;;;;;;;;;;;;;;6647641;26;19926;-61
2024/04/26 18:06:24;;;;;;;;;;;;;;;;;;6648141;26;20173;-61
2024/04/26 18:09:30;;;;;;;;;;;;;;;;;;6648847;26;20119;-61
2024/04/26 18:12:35;;;;;;;;;;;;;;;;;;6691427;26;19926;-61
2024/04/26 18:15:43;;;;;;;;;;;;;;;;;;6690906;26;20031;-61
2024/04/26 18:18:48;;;;;;;;;;;;;;;;;;6690282;26;19989;-63
2024/04/26 18:21:53;;;;;;;;;;;;;;;;;;6691457;26;20092;-62
2024/04/26 18:24:58;;;;;;;;;;;;;;;;;;6690751;26;19949;-62
2024/04/26 18:28:04;;;;;;;;;;;;;;;;;;6691069;26;19932;-63
2024/04/26 18:31:12;;;;;;;;;;;;;;;;;;6691279;26;19937;-62
2024/04/26 18:34:17;;;;;;;;;;;;;;;;;;6691059;26;19925;-65
2024/04/26 18:37:22;;;;;;;;;;;;;;;;;;6691518;26;20123;-63
2024/04/26 18:40:27;;;;;;;;;;;;;;;;;;6680189;26;19925;-61
2024/04/26 18:43:33;;;;;;;;;;;;;;;;;;6688555;26;20393;-61
2024/04/26 18:46:41;;;;;;;;;;;;;;;;;;6690974;26;20307;-62
2024/04/26 18:49:47;;;;;;;;;;;;;;;;;;6690954;26;19926;-61
2024/04/26 18:52:53;;;;;;;;;;;;;;;;;;6690660;26;19926;-62
2024/04/26 18:55:59;;;;;;;;;;;;;;;;;;6681775;26;20146;-62
2024/04/26 18:59:04;;;;;;;;;;;;;;;;;;6690101;26;19933;-62
2024/04/26 19:02:12;;;;;;;;;;;;;;;;;;6689188;26;19932;-62
2024/04/26 19:05:17;;;;;;;;;;;;;;;;;;6690100;26;19933;-62
2024/04/26 19:08:22;;;;;;;;;;;;;;;;;;6690002;26;19926;-64
2024/04/26 19:11:28;;;;;;;;;;;;;;;;;;6690049;26;19932;-62
2024/04/26 19:14:34;;;;;;;;;;;;;;;;;;6689615;26;19926;-61
2024/04/26 19:17:42;;;;;;;;;;;;;;;;;;6689902;26;19925;-62
2024/04/26 19:20:47;;;;;;;;;;;;;;;;;;6689335;26;20122;-62
2024/04/26 19:23:52;;;;;;;;;;;;;;;;;;6692605;26;19933;-61
2024/04/26 19:26:58;;;;;;;;;;;;;;;;;;6695154;26;19932;-61
2024/04/26 19:30:03;;;;;;;;;;;;;;;;;;6693523;26;19929;-61
2024/04/26 19:33:12;;;;;;;;;;;;;;;;;;6681715;26;20035;-62
2024/04/26 19:36:18;;;;;;;;;;;;;;;;;;6693381;26;19926;-62
2024/04/26 19:39:23;;;;;;;;;;;;;;;;;;6692476;26;19932;-63
2024/04/26 19:42:29;;;;;;;;;;;;;;;;;;6692852;26;20127;-61
2024/04/26 19:45:35;;;;;;;;;;;;;;;;;;6692853;26;20024;-61
2024/04/26 19:48:42;;;;;;;;;;;;;;;;;;6693135;26;19925;-62
2024/04/26 19:51:48;;;;;;;;;;;;;;;;;;6693469;26;19925;-62
2024/04/26 19:58:15;;;;;;;;;;;;;;;;;;6693731;26;20019;-62
2024/04/26 20:01:20;;;;;;;;;;;;;;;;;;6694374;26;19933;-63
2024/04/26 20:04:32;;;;;;;;;;;;;;;;;;6693660;26;20035;-62
2024/04/26 20:07:37;;;;;;;;;;;;;;;;;;6694064;26;19932;-61
2024/04/26 20:10:43;;;;;;;;;;;;;;;;;;6682048;26;19994;-62
2024/04/26 20:13:48;;;;;;;;;;;;;;;;;;6691954;26;20116;-61
2024/04/26 20:16:54;;;;;;;;;;;;;;;;;;6681951;26;19953;-62
2024/04/26 20:20:02;;;;;;;;;;;;;;;;;;6690860;26;19929;-62
2024/04/26 20:23:12;;;;;;;;;;;;;;;;;;6692947;26;19926;-62
2024/04/26 20:26:17;;;;;;;;;;;;;;;;;;6692968;26;19926;-60
2024/04/26 20:29:22;;;;;;;;;;;;;;;;;;6680691;26;20018;-62
2024/04/26 20:32:27;;;;;;;;;;;;;;;;;;6693317;26;20107;-61
2024/04/26 20:35:35;;;;;;;;;;;;;;;;;;6692633;26;19932;-61
2024/04/26 20:38:41;;;;;;;;;;;;;;;;;;6692274;26;19936;-62
2024/04/26 20:41:46;;;;;;;;;;;;;;;;;;6660912;26;19925;-62
2024/04/26 20:44:52;;;;;;;;;;;;;;;;;;6695098;26;19929;-61
2024/04/26 20:47:57;;;;;;;;;;;;;;;;;;6706620;26;20088;-61
2024/04/26 20:51:06;;;;;;;;;;;;;;;;;;6681940;26;20138;-62
2024/04/26 20:54:12;;;;;;;;;;;;;;;;;;6692502;26;19930;-61
2024/04/26 20:57:17;;;;;;;;;;;;;;;;;;6692334;26;19932;-62
2024/04/26 21:00:23;;;;;;;;;;;;;;;;;;6692308;26;19926;-62
2024/04/26 21:03:28;;;;;;;;;;;;;;;;;;6692324;26;19932;-62
2024/04/26 21:06:36;;;;;;;;;;;;;;;;;;6681210;26;20539;-62
2024/04/26 21:09:41;;;;;;;;;;;;;;;;;;6692379;26;19926;-62
2024/04/26 21:12:47;;;;;;;;;;;;;;;;;;6685225;26;19932;-62
2024/04/26 21:15:53;;;;;;;;;;;;;;;;;;6692359;26;19925;-62